< < Back
Terminal Aerodrome Forecast


Current Version              Previous Versions:   1  2  3  4  5  6  7  8  9  

Terminal Aerodrome Forecast

330
FTUS42 KILM 020400 AAB
TAFFLO
TAF AMD
KFLO 020402Z 0204/0224 23003KT 5SM BR BKN009 OVC013
     FM021500 32007KT P6SM BKN015 OVC050
     FM022000 03008KT 6SM BR BKN014=



Latest METAR

521
SAUS70 KWBC 020500 RRF
MTRFLO
METAR KFLO 020453Z AUTO 21004KT 6SM BR OVC005 05/04 A3034 RMK AO2 SLP271
T00500044 400560011


USA.gov is the U.S. government's official web portal to all federal, state and local government web resources and services.